createdAt,value
2024-02-06T00:02:18.716Z,68.39
2024-02-06T00:04:45.528Z,68.45
2024-02-06T00:07:20.326Z,67.91
2024-02-06T00:09:55.109Z,68.59
2024-02-06T00:12:21.788Z,68.54
2024-02-06T00:14:48.296Z,69.04
2024-02-06T00:17:14.802Z,69.15
2024-02-06T00:19:44.018Z,68.92
2024-02-06T00:22:10.710Z,69.09
2024-02-06T00:24:37.522Z,69.02
2024-02-06T00:27:04.190Z,69.22
2024-02-06T00:29:30.777Z,68.96
2024-02-06T00:31:57.392Z,69.36
2024-02-06T00:34:24.144Z,69.40
2024-02-06T00:36:50.893Z,69.20
2024-02-06T00:39:17.541Z,70.24
2024-02-06T00:41:44.407Z,68.85
2024-02-06T00:44:11.159Z,69.30
2024-02-06T00:46:37.745Z,69.51
2024-02-06T00:49:04.650Z,69.24
2024-02-06T00:51:31.457Z,69.61
2024-02-06T00:53:57.952Z,69.62
2024-02-06T00:56:24.577Z,69.44
2024-02-06T00:58:51.065Z,69.56
2024-02-06T01:01:17.755Z,68.53
2024-02-06T01:03:44.959Z,68.65
2024-02-06T01:06:11.692Z,68.96
2024-02-06T01:08:38.282Z,68.67
2024-02-06T01:11:05.048Z,68.71
2024-02-06T01:13:31.684Z,68.50
2024-02-06T01:15:58.274Z,68.85
2024-02-06T01:18:24.889Z,69.25
2024-02-06T01:20:51.459Z,68.53
2024-02-06T01:23:18.057Z,69.13
2024-02-06T01:25:44.784Z,69.24
2024-02-06T01:28:13.498Z,68.77
2024-02-06T01:30:40.051Z,68.72
2024-02-06T01:33:06.913Z,68.30
2024-02-06T01:35:33.431Z,67.87
2024-02-06T01:37:59.920Z,67.84
2024-02-06T01:40:26.558Z,67.86
2024-02-06T01:42:53.756Z,68.45
2024-02-06T01:45:20.369Z,68.92
2024-02-06T01:47:47.232Z,68.90
2024-02-06T01:50:14.441Z,68.54
2024-02-06T01:52:41.250Z,67.87
2024-02-06T01:55:09.505Z,68.91
2024-02-06T01:57:37.598Z,67.86
2024-02-06T02:00:05.333Z,68.26
2024-02-06T02:02:32.358Z,68.89
2024-02-06T02:04:58.996Z,68.21
2024-02-06T02:10:17.938Z,69.22
2024-02-06T02:12:44.861Z,68.72
2024-02-06T02:15:13.443Z,68.40
2024-02-06T02:17:40.032Z,68.81
2024-02-06T02:20:07.386Z,68.85
2024-02-06T02:22:34.073Z,68.69
2024-02-06T02:25:00.720Z,68.55
2024-02-06T02:27:27.347Z,68.67
2024-02-06T02:29:54.603Z,68.51
2024-02-06T02:32:22.118Z,68.88
2024-02-06T02:34:49.339Z,68.89
2024-02-06T02:37:16.116Z,68.51
2024-02-06T02:39:42.923Z,69.09
2024-02-06T02:42:09.541Z,69.18
2024-02-06T02:44:36.107Z,69.08
2024-02-06T02:47:03.146Z,68.45
2024-02-06T02:49:32.016Z,67.93
2024-02-06T02:51:58.768Z,68.43
2024-02-06T02:54:28.562Z,68.38
2024-02-06T02:56:58.488Z,68.58
2024-02-06T02:59:25.053Z,67.90
2024-02-06T03:01:52.116Z,68.12
2024-02-06T03:04:18.800Z,68.14
2024-02-06T03:06:46.207Z,68.24
2024-02-06T03:09:17.367Z,68.25
2024-02-06T03:11:43.964Z,68.30
2024-02-06T03:14:10.665Z,68.69
2024-02-06T03:16:38.681Z,68.26
2024-02-06T03:19:05.754Z,68.19
2024-02-06T03:21:35.101Z,68.04
2024-02-06T03:24:01.621Z,68.22
2024-02-06T03:26:28.239Z,68.53
2024-02-06T03:28:54.763Z,68.96
2024-02-06T03:31:21.314Z,68.02
2024-02-06T03:33:48.102Z,68.52
2024-02-06T03:36:15.940Z,68.23
2024-02-06T03:38:42.559Z,68.37
2024-02-06T03:41:11.905Z,68.88
2024-02-06T03:43:41.586Z,68.82
2024-02-06T03:46:11.706Z,69.57
2024-02-06T03:48:39.048Z,69.01
2024-02-06T03:51:07.493Z,68.53
2024-02-06T03:53:35.585Z,69.52
2024-02-06T03:56:02.106Z,69.48
2024-02-06T03:58:28.864Z,69.27
2024-02-06T04:00:56.419Z,69.73
2024-02-06T04:03:23.402Z,69.85
2024-02-06T04:05:50.299Z,69.02
2024-02-06T04:08:16.907Z,68.99
2024-02-06T04:10:43.629Z,68.30
2024-02-06T04:13:10.423Z,69.46
2024-02-06T04:15:37.441Z,69.37
2024-02-06T04:18:07.088Z,69.86
2024-02-06T04:20:33.747Z,69.74
2024-02-06T04:23:01.556Z,69.54
2024-02-06T04:25:28.472Z,69.77
2024-02-06T04:27:55.566Z,69.48
2024-02-06T04:30:22.098Z,68.91
2024-02-06T04:32:52.929Z,68.74
2024-02-06T04:35:20.000Z,69.00
2024-02-06T04:37:50.024Z,69.15
2024-02-06T04:40:16.712Z,68.62
2024-02-06T04:42:43.401Z,68.31
2024-02-06T04:45:10.521Z,68.68
2024-02-06T04:47:37.253Z,68.79
2024-02-06T04:50:06.465Z,68.83
2024-02-06T04:52:36.468Z,68.35
2024-02-06T04:55:06.101Z,69.01
2024-02-06T04:57:32.684Z,69.41
2024-02-06T05:00:02.239Z,69.53
2024-02-06T05:02:28.778Z,69.61
2024-02-06T05:04:56.348Z,69.81
2024-02-06T05:07:23.395Z,69.69
2024-02-06T05:09:50.089Z,70.15
2024-02-06T05:12:19.373Z,70.13
2024-02-06T05:14:45.927Z,70.38
2024-02-06T05:17:12.547Z,70.32
2024-02-06T05:19:43.055Z,69.93
2024-02-06T05:22:13.195Z,70.39
2024-02-06T05:24:41.067Z,70.83
2024-02-06T05:27:07.909Z,71.29
2024-02-06T05:29:39.668Z,71.02
2024-02-06T05:32:06.517Z,70.81
2024-02-06T05:34:35.398Z,70.42
2024-02-06T05:37:03.321Z,70.52
2024-02-06T05:39:29.706Z,71.03
2024-02-06T05:41:56.662Z,71.10
2024-02-06T05:44:23.202Z,70.93
2024-02-06T05:46:51.152Z,71.32
2024-02-06T05:49:17.751Z,71.44
2024-02-06T05:51:44.517Z,71.25
2024-02-06T05:54:17.208Z,70.85
2024-02-06T05:56:45.381Z,70.65
2024-02-06T05:59:12.330Z,69.75
2024-02-06T06:01:38.964Z,69.87
2024-02-06T06:04:05.681Z,69.90
2024-02-06T06:06:32.779Z,69.39
2024-02-06T06:09:01.607Z,69.16
2024-02-06T06:11:29.684Z,69.21
2024-02-06T06:13:57.542Z,69.15
2024-02-06T06:16:24.332Z,69.32
2024-02-06T06:18:53.441Z,69.82
2024-02-06T06:21:21.119Z,69.57
2024-02-06T06:23:52.439Z,69.17
2024-02-06T06:26:20.136Z,69.49
2024-02-06T06:28:49.607Z,69.69
2024-02-06T06:31:22.310Z,69.33
2024-02-06T06:33:49.714Z,69.26
2024-02-06T06:36:18.748Z,69.33
2024-02-06T06:38:48.307Z,69.16
2024-02-06T06:41:47.380Z,69.13
2024-02-06T06:47:30.053Z,69.59
2024-02-06T06:50:09.590Z,69.46
2024-02-06T06:52:40.717Z,69.54
2024-02-06T06:55:08.052Z,68.81
2024-02-06T06:57:37.241Z,69.37
2024-02-06T07:00:06.430Z,69.12
2024-02-06T07:02:33.947Z,69.55
2024-02-06T07:05:13.010Z,69.23
2024-02-06T07:07:41.342Z,69.07
2024-02-06T07:10:34.442Z,69.78
2024-02-06T07:13:06.471Z,69.39
2024-02-06T07:15:39.642Z,69.24
2024-02-06T07:40:12.566Z,70.19
2024-02-06T08:01:58.005Z,69.39
2024-02-06T08:04:24.918Z,69.47
2024-02-06T08:06:51.581Z,69.08
2024-02-06T08:09:19.576Z,69.87
2024-02-06T08:11:46.774Z,69.86
2024-02-06T08:14:14.282Z,69.95
2024-02-06T08:16:41.747Z,69.63
2024-02-06T08:19:09.801Z,70.63
2024-02-06T08:21:36.858Z,69.47
2024-02-06T08:24:03.876Z,70.37
2024-02-06T08:26:33.529Z,70.01
2024-02-06T08:29:00.351Z,70.16
2024-02-06T08:31:27.125Z,69.62
2024-02-06T08:33:53.865Z,70.35
2024-02-06T08:36:20.762Z,70.61
2024-02-06T08:38:47.513Z,69.98
2024-02-06T08:41:14.221Z,70.18
2024-02-06T08:43:46.347Z,70.13
2024-02-06T08:46:19.565Z,70.27
2024-02-06T08:48:46.228Z,69.74
2024-02-06T08:51:13.402Z,70.27
2024-02-06T08:53:40.218Z,70.98
2024-02-06T08:56:07.008Z,70.56
2024-02-06T08:58:33.626Z,70.59
2024-02-06T09:01:00.360Z,70.94
2024-02-06T09:03:27.258Z,70.63
2024-02-06T09:05:53.946Z,70.83
2024-02-06T09:08:20.849Z,70.88
2024-02-06T09:10:47.930Z,70.48
2024-02-06T09:13:15.107Z,70.47
2024-02-06T09:15:41.777Z,70.28
2024-02-06T09:18:08.730Z,70.62
2024-02-06T09:20:36.019Z,70.61
2024-02-06T09:23:05.306Z,69.94
2024-02-06T09:25:32.021Z,70.22
2024-02-06T09:27:58.742Z,70.55
2024-02-06T09:30:25.622Z,70.42
2024-02-06T09:32:52.294Z,69.76
2024-02-06T09:35:19.008Z,69.40
2024-02-06T09:37:46.001Z,69.17
2024-02-06T09:40:14.243Z,69.26
2024-02-06T09:42:42.121Z,70.75
2024-02-06T09:45:08.808Z,70.13
2024-02-06T09:47:35.327Z,70.58
2024-02-06T09:50:05.324Z,69.92
2024-02-06T09:52:32.581Z,69.28
2024-02-06T09:55:01.464Z,69.14
2024-02-06T09:57:28.558Z,69.42
2024-02-06T09:59:55.298Z,69.72
2024-02-06T10:02:24.640Z,70.27
2024-02-06T10:04:54.298Z,71.02
2024-02-06T10:07:21.260Z,70.89
2024-02-06T10:09:48.188Z,71.53
2024-02-06T10:12:15.857Z,70.75
2024-02-06T10:14:42.624Z,71.47
2024-02-06T10:17:10.690Z,71.73
2024-02-06T10:19:37.505Z,71.39
2024-02-06T10:22:04.498Z,70.31
2024-02-06T10:24:31.320Z,69.77
2024-02-06T10:27:01.578Z,69.24
2024-02-06T10:29:29.243Z,69.50
2024-02-06T10:32:02.402Z,69.72
2024-02-06T10:34:31.143Z,69.18
2024-02-06T10:37:01.198Z,69.11
2024-02-06T10:39:30.085Z,68.88
2024-02-06T10:42:36.169Z,68.71
2024-02-06T10:44:48.328Z,67.99
2024-02-06T10:47:16.601Z,69.08
2024-02-06T10:49:43.300Z,68.33
2024-02-06T10:52:10.161Z,68.65
2024-02-06T10:54:37.462Z,67.95
2024-02-06T10:57:08.175Z,68.77
2024-02-06T10:59:59.427Z,68.82
2024-02-06T11:02:31.591Z,68.67
2024-02-06T11:05:24.773Z,68.42
2024-02-06T11:08:04.390Z,68.29
2024-02-06T11:10:39.953Z,67.80
2024-02-06T11:13:32.517Z,69.03
2024-02-06T11:16:04.357Z,67.37
2024-02-06T11:18:36.515Z,67.74
2024-02-06T11:21:05.970Z,67.94
2024-02-06T11:23:34.983Z,68.24
2024-02-06T11:26:03.161Z,67.57
2024-02-06T11:28:35.357Z,68.71
2024-02-06T11:31:05.078Z,68.16
2024-02-06T11:33:38.229Z,68.21
2024-02-06T11:36:36.339Z,68.35
2024-02-06T11:39:08.003Z,68.38
2024-02-06T11:41:39.270Z,68.39
2024-02-06T11:44:18.794Z,68.56
2024-02-06T11:46:56.488Z,68.37
2024-02-06T11:49:26.090Z,67.98
2024-02-06T11:51:59.653Z,67.73
2024-02-06T11:54:28.693Z,67.67
2024-02-06T11:56:58.411Z,67.71
2024-02-06T11:59:50.912Z,67.59
2024-02-06T12:02:26.119Z,68.34
2024-02-06T12:08:22.471Z,68.88
2024-02-06T12:10:49.874Z,67.87
2024-02-06T12:13:16.702Z,67.21
2024-02-06T12:15:44.597Z,68.00
2024-02-06T12:18:15.545Z,67.57
2024-02-06T12:20:43.482Z,68.31
2024-02-06T12:23:13.030Z,67.43
2024-02-06T12:28:32.253Z,68.21
2024-02-06T12:31:02.947Z,68.58
2024-02-06T12:33:35.418Z,68.15
2024-02-06T12:36:03.926Z,68.04
2024-02-06T12:38:30.853Z,68.30
2024-02-06T12:41:02.259Z,68.09
2024-02-06T12:43:28.993Z,67.56
2024-02-06T12:45:55.940Z,68.11
2024-02-06T12:48:25.357Z,68.16
2024-02-06T12:50:52.274Z,68.95
2024-02-06T12:53:26.305Z,68.92
2024-02-06T12:55:53.196Z,68.02
2024-02-06T12:58:21.024Z,67.79
2024-02-06T13:01:00.194Z,67.44
2024-02-06T13:03:27.152Z,68.04
2024-02-06T13:05:56.252Z,67.63
2024-02-06T13:08:23.680Z,67.69
2024-02-06T13:10:51.008Z,67.70
2024-02-06T13:13:22.968Z,67.87
2024-02-06T13:15:49.763Z,68.32
2024-02-06T13:18:18.822Z,68.01
2024-02-06T13:20:46.376Z,67.76
2024-02-06T13:23:55.988Z,66.90
2024-02-06T13:26:25.518Z,67.67
2024-02-06T13:29:04.667Z,67.48
2024-02-06T13:31:37.281Z,67.34
2024-02-06T13:36:50.014Z,67.01
2024-02-06T13:39:26.425Z,67.66
2024-02-06T13:41:58.091Z,67.92
2024-02-06T13:44:24.886Z,67.85
2024-02-06T13:46:52.162Z,67.41
2024-02-06T13:49:18.753Z,68.04
2024-02-06T13:51:45.412Z,67.72
2024-02-06T13:54:14.856Z,67.62
2024-02-06T13:56:43.085Z,67.82
2024-02-06T13:59:10.041Z,67.60
2024-02-06T14:01:38.018Z,67.34
2024-02-06T14:04:04.886Z,67.34
2024-02-06T14:06:31.468Z,68.03
2024-02-06T14:08:58.783Z,67.77
2024-02-06T14:11:27.748Z,67.59
2024-02-06T14:13:54.719Z,67.40
2024-02-06T14:16:22.359Z,67.77
2024-02-06T14:18:49.086Z,67.61
2024-02-06T14:21:15.631Z,67.58
2024-02-06T14:23:42.275Z,67.82
2024-02-06T14:26:09.162Z,67.63
2024-02-06T14:28:36.027Z,67.95
2024-02-06T14:31:02.675Z,67.99
2024-02-06T14:33:29.426Z,67.32
2024-02-06T14:35:56.095Z,68.22
2024-02-06T14:38:24.113Z,68.02
2024-02-06T14:40:52.126Z,68.56
2024-02-06T14:43:19.987Z,68.30
2024-02-06T14:45:48.178Z,68.14
2024-02-06T14:48:15.157Z,68.54
2024-02-06T14:50:41.852Z,68.55
2024-02-06T14:53:08.482Z,68.54
2024-02-06T14:55:35.067Z,69.14
2024-02-06T14:58:03.464Z,68.82
2024-02-06T15:00:30.010Z,68.44
2024-02-06T15:03:06.781Z,68.91
2024-02-06T15:05:35.778Z,68.84
2024-02-06T15:08:02.583Z,69.06
2024-02-06T15:10:29.180Z,69.64
2024-02-06T15:12:55.865Z,69.35
2024-02-06T15:15:22.838Z,68.86
2024-02-06T15:17:49.720Z,68.60
2024-02-06T15:20:16.968Z,69.51
2024-02-06T15:22:43.742Z,69.85
2024-02-06T15:25:10.423Z,68.99
2024-02-06T15:27:36.983Z,69.55
2024-02-06T15:30:03.809Z,69.98
2024-02-06T15:32:32.380Z,69.67
2024-02-06T15:34:59.237Z,70.25
2024-02-06T15:37:25.903Z,70.64
2024-02-06T15:39:52.723Z,70.83
2024-02-06T15:42:19.991Z,71.88
2024-02-06T15:44:48.056Z,71.78
2024-02-06T15:47:15.109Z,72.16
2024-02-06T15:49:41.914Z,72.12
2024-02-06T15:52:08.482Z,72.03
2024-02-06T15:54:36.417Z,72.47
2024-02-06T15:57:03.006Z,71.97
2024-02-06T15:59:29.579Z,72.84
2024-02-06T16:01:56.430Z,72.30
2024-02-06T16:04:23.180Z,72.23
2024-02-06T16:06:49.938Z,72.84
2024-02-06T16:09:18.333Z,72.56
2024-02-06T16:11:53.081Z,72.59
2024-02-06T16:14:22.904Z,72.47
2024-02-06T16:16:50.800Z,72.47
2024-02-06T16:19:26.986Z,72.06
2024-02-06T16:22:01.178Z,72.33
2024-02-06T16:24:29.327Z,71.06
2024-02-06T16:26:55.842Z,71.54
2024-02-06T16:29:23.588Z,71.14
2024-02-06T16:31:50.150Z,71.03
2024-02-06T16:34:17.454Z,71.31
2024-02-06T16:36:44.069Z,71.07
2024-02-06T16:39:10.570Z,70.11
2024-02-06T16:41:37.175Z,70.03
2024-02-06T16:44:04.116Z,70.28
2024-02-06T16:46:30.929Z,70.97
2024-02-06T16:48:58.071Z,70.40
2024-02-06T16:51:24.716Z,70.10
2024-02-06T16:53:51.284Z,71.43
2024-02-06T16:56:20.382Z,70.54
2024-02-06T16:58:47.002Z,70.87
2024-02-06T17:01:14.865Z,70.37
2024-02-06T17:03:41.523Z,70.40
2024-02-06T17:06:08.256Z,70.62
2024-02-06T17:08:34.956Z,70.05
2024-02-06T17:11:02.776Z,70.28
2024-02-06T17:13:35.293Z,70.35
2024-02-06T17:16:03.692Z,70.71
2024-02-06T17:18:30.826Z,70.83
2024-02-06T17:21:00.999Z,70.57
2024-02-06T17:23:28.326Z,70.20
2024-02-06T17:25:56.702Z,69.97
2024-02-06T17:28:23.479Z,70.33
2024-02-06T17:30:50.102Z,70.11
2024-02-06T17:33:16.720Z,69.94
2024-02-06T17:35:43.750Z,70.25
2024-02-06T17:38:10.599Z,69.83
2024-02-06T17:40:43.446Z,69.34
2024-02-06T17:43:10.348Z,69.48
2024-02-06T17:45:37.760Z,69.94
2024-02-06T17:48:06.720Z,69.62
2024-02-06T17:50:33.687Z,70.00
2024-02-06T17:53:01.160Z,68.74
2024-02-06T17:55:27.859Z,69.39
2024-02-06T17:57:54.499Z,68.79
2024-02-06T18:00:21.051Z,69.26
2024-02-06T18:02:54.444Z,68.87
2024-02-06T18:05:23.316Z,70.00
2024-02-06T18:07:51.411Z,68.99
2024-02-06T18:10:18.704Z,69.41
2024-02-06T18:12:45.253Z,69.29
2024-02-06T18:15:11.844Z,69.39
2024-02-06T18:17:39.161Z,69.40
2024-02-06T18:20:06.598Z,69.29
2024-02-06T18:22:33.960Z,69.03
2024-02-06T18:25:01.328Z,69.39
2024-02-06T18:27:28.151Z,70.28
2024-02-06T18:29:54.810Z,70.11
2024-02-06T18:32:21.311Z,70.49
2024-02-06T18:34:48.332Z,70.92
2024-02-06T18:37:15.049Z,71.14
2024-02-06T18:39:41.631Z,71.25
2024-02-06T18:42:08.328Z,71.40
2024-02-06T18:44:36.023Z,71.90
2024-02-06T18:47:02.839Z,71.30
2024-02-06T18:49:29.623Z,71.11
2024-02-06T18:51:56.245Z,71.75
2024-02-06T18:54:22.883Z,71.32
2024-02-06T18:56:49.476Z,71.32
2024-02-06T18:59:16.139Z,71.95
2024-02-06T19:01:42.750Z,71.59
2024-02-06T19:04:10.103Z,72.06
2024-02-06T19:06:37.072Z,71.86
2024-02-06T19:09:04.019Z,71.67
2024-02-06T19:11:32.032Z,71.78
2024-02-06T19:13:58.645Z,71.93
2024-02-06T19:16:25.207Z,71.91
2024-02-06T19:18:51.818Z,71.73
2024-02-06T19:21:20.336Z,71.88
2024-02-06T19:23:47.223Z,72.13
2024-02-06T19:26:13.778Z,72.19
2024-02-06T19:28:43.413Z,71.96
2024-02-06T19:31:09.974Z,71.36
2024-02-06T19:33:38.049Z,71.58
2024-02-06T19:36:05.320Z,71.01
2024-02-06T19:38:32.387Z,71.29
2024-02-06T19:40:59.047Z,71.84
2024-02-06T19:43:27.070Z,72.07
2024-02-06T19:45:57.852Z,72.00
2024-02-06T19:48:26.745Z,72.18
2024-02-06T19:50:53.829Z,72.29
2024-02-06T19:53:21.738Z,72.01
2024-02-06T19:55:48.510Z,71.42
2024-02-06T19:58:15.673Z,71.14
2024-02-06T20:00:42.326Z,71.11
2024-02-06T20:03:11.335Z,71.74
2024-02-06T20:05:38.096Z,72.47
2024-02-06T20:08:05.003Z,71.90
2024-02-06T20:10:31.729Z,71.92
2024-02-06T20:12:58.774Z,72.42
2024-02-06T20:15:27.608Z,72.01
2024-02-06T20:17:55.640Z,72.46
2024-02-06T20:20:22.409Z,72.49
2024-02-06T20:22:49.068Z,72.49
2024-02-06T20:25:15.856Z,72.72
2024-02-06T20:27:42.387Z,71.95
2024-02-06T20:30:11.758Z,72.24
2024-02-06T20:32:38.414Z,72.19
2024-02-06T20:35:06.006Z,71.91
2024-02-06T20:37:32.665Z,71.34
2024-02-06T20:39:59.921Z,71.98
2024-02-06T20:42:26.866Z,71.90
2024-02-06T20:44:53.639Z,71.50
2024-02-06T20:47:20.222Z,72.25
2024-02-06T20:49:47.074Z,72.35
2024-02-06T20:52:13.787Z,72.38
2024-02-06T20:54:40.661Z,72.17
2024-02-06T20:57:07.419Z,72.68
2024-02-06T20:59:36.969Z,72.60
2024-02-06T21:02:05.056Z,72.75
2024-02-06T21:04:32.730Z,72.49
2024-02-06T21:06:59.526Z,72.38
2024-02-06T21:09:27.391Z,73.26
2024-02-06T21:11:53.806Z,72.88
2024-02-06T21:14:20.412Z,73.05
2024-02-06T21:16:47.185Z,72.49
2024-02-06T21:19:13.921Z,72.74
2024-02-06T21:21:40.764Z,73.26
2024-02-06T21:24:07.448Z,73.16
2024-02-06T21:26:34.582Z,73.14
2024-02-06T21:29:01.330Z,72.33
2024-02-06T21:31:28.182Z,72.36
2024-02-06T21:33:54.818Z,72.31
2024-02-06T21:36:21.477Z,72.85
2024-02-06T21:38:48.029Z,72.50
2024-02-06T21:41:14.709Z,72.83
2024-02-06T21:43:43.533Z,72.15
2024-02-06T21:46:10.930Z,71.77
2024-02-06T21:48:37.775Z,71.65
2024-02-06T21:51:04.666Z,71.97
2024-02-06T21:53:31.251Z,71.73
2024-02-06T21:56:08.168Z,71.65
2024-02-06T21:58:44.115Z,71.21
2024-02-06T22:01:10.811Z,71.49
2024-02-06T22:03:37.483Z,71.15
2024-02-06T22:06:04.442Z,71.98
2024-02-06T22:08:31.130Z,71.51
2024-02-06T22:10:58.253Z,71.25
2024-02-06T22:13:25.063Z,71.34
2024-02-06T22:15:51.643Z,71.92
2024-02-06T22:18:21.201Z,71.28
2024-02-06T22:20:47.796Z,71.62
2024-02-06T22:23:14.409Z,71.76
2024-02-06T22:25:41.225Z,72.00
2024-02-06T22:28:07.939Z,71.95
2024-02-06T22:30:34.612Z,71.49
2024-02-06T22:33:01.388Z,71.85
2024-02-06T22:35:28.221Z,72.07
2024-02-06T22:37:54.869Z,72.07
2024-02-06T22:40:21.887Z,72.28
2024-02-06T22:42:48.487Z,71.74
2024-02-06T22:45:16.751Z,72.22
2024-02-06T22:47:43.949Z,72.69
2024-02-06T22:50:11.140Z,72.51
2024-02-06T22:52:37.925Z,72.28
2024-02-06T22:55:06.035Z,72.63
2024-02-06T22:57:32.812Z,73.16
2024-02-06T22:59:59.334Z,73.24
2024-02-06T23:02:25.969Z,72.81
2024-02-06T23:04:53.140Z,72.72
2024-02-06T23:07:21.036Z,73.25
2024-02-06T23:09:47.680Z,72.96
2024-02-06T23:12:14.486Z,73.18
2024-02-06T23:14:40.988Z,73.69
2024-02-06T23:17:07.648Z,73.16
2024-02-06T23:19:34.714Z,73.45
2024-02-06T23:22:01.798Z,72.75
2024-02-06T23:24:28.571Z,72.80
2024-02-06T23:26:55.190Z,73.16
2024-02-06T23:29:21.738Z,73.15
2024-02-06T23:31:48.373Z,72.56
2024-02-06T23:34:14.940Z,72.60
2024-02-06T23:36:41.560Z,72.12
2024-02-06T23:39:15.719Z,72.54
2024-02-06T23:41:43.390Z,72.77
2024-02-06T23:44:10.622Z,72.46
2024-02-06T23:46:37.584Z,72.51
2024-02-06T23:49:06.882Z,72.67
2024-02-06T23:51:33.735Z,72.38
2024-02-06T23:54:01.434Z,72.39
2024-02-06T23:56:28.029Z,72.73
2024-02-06T23:58:54.661Z,72.80
